sensor_id;sensor_type;location;lat;lon;timestamp;temperature;humidity
34147;DHT22;20423;49.448;9.056;2023-07-20T00:01:34;16.80;99.90
34147;DHT22;20423;49.448;9.056;2023-07-20T00:04:00;16.80;99.90
34147;DHT22;20423;49.448;9.056;2023-07-20T00:06:25;16.70;99.90
34147;DHT22;20423;49.448;9.056;2023-07-20T00:08:53;16.80;99.90
34147;DHT22;20423;49.448;9.056;2023-07-20T00:11:19;16.70;99.90
34147;DHT22;20423;49.448;9.056;2023-07-20T00:13:44;16.60;99.90
34147;DHT22;20423;49.448;9.056;2023-07-20T00:16:10;16.60;99.90
34147;DHT22;20423;49.448;9.056;2023-07-20T00:22:04;16.50;99.90
34147;DHT22;20423;49.448;9.056;2023-07-20T00:24:30;16.50;99.90
34147;DHT22;20423;49.448;9.056;2023-07-20T00:26:56;16.40;99.90
34147;DHT22;20423;49.448;9.056;2023-07-20T00:29:21;16.30;99.90
34147;DHT22;20423;49.448;9.056;2023-07-20T00:31:47;16.20;99.90
34147;DHT22;20423;49.448;9.056;2023-07-20T00:34:13;16.20;99.90
34147;DHT22;20423;49.448;9.056;2023-07-20T00:36:39;16.20;99.90
34147;DHT22;20423;49.448;9.056;2023-07-20T00:39:05;16.10;99.90
34147;DHT22;20423;49.448;9.056;2023-07-20T00:41:30;16.10;99.90
34147;DHT22;20423;49.448;9.056;2023-07-20T00:43:58;16.00;99.90
34147;DHT22;20423;49.448;9.056;2023-07-20T00:46:23;16.00;99.90
34147;DHT22;20423;49.448;9.056;2023-07-20T00:48:50;15.90;99.90
34147;DHT22;20423;49.448;9.056;2023-07-20T00:51:16;15.90;99.90
34147;DHT22;20423;49.448;9.056;2023-07-20T00:53:42;15.90;99.90
34147;DHT22;20423;49.448;9.056;2023-07-20T00:56:08;15.90;99.90
34147;DHT22;20423;49.448;9.056;2023-07-20T00:58:35;15.90;99.90
34147;DHT22;20423;49.448;9.056;2023-07-20T01:01:00;16.00;99.90
34147;DHT22;20423;49.448;9.056;2023-07-20T01:03:26;16.00;99.90
34147;DHT22;20423;49.448;9.056;2023-07-20T01:08:21;16.10;99.90
34147;DHT22;20423;49.448;9.056;2023-07-20T01:10:53;16.10;99.90
34147;DHT22;20423;49.448;9.056;2023-07-20T01:13:19;16.10;99.90
34147;DHT22;20423;49.448;9.056;2023-07-20T01:15:49;16.10;99.90
34147;DHT22;20423;49.448;9.056;2023-07-20T01:18:15;16.10;99.90
34147;DHT22;20423;49.448;9.056;2023-07-20T01:20:41;16.10;99.90
34147;DHT22;20423;49.448;9.056;2023-07-20T01:23:21;16.10;99.90
34147;DHT22;20423;49.448;9.056;2023-07-20T01:33:15;15.90;99.90
34147;DHT22;20423;49.448;9.056;2023-07-20T01:35:42;15.90;99.90
34147;DHT22;20423;49.448;9.056;2023-07-20T01:38:09;15.70;99.90
34147;DHT22;20423;49.448;9.056;2023-07-20T01:40:35;15.60;99.90
34147;DHT22;20423;49.448;9.056;2023-07-20T01:46:00;15.40;99.90
34147;DHT22;20423;49.448;9.056;2023-07-20T01:48:38;15.30;99.90
34147;DHT22;20423;49.448;9.056;2023-07-20T01:51:04;15.20;99.90
34147;DHT22;20423;49.448;9.056;2023-07-20T01:53:29;15.00;99.90
34147;DHT22;20423;49.448;9.056;2023-07-20T01:55:56;15.00;99.90
34147;DHT22;20423;49.448;9.056;2023-07-20T01:58:21;14.90;99.90
34147;DHT22;20423;49.448;9.056;2023-07-20T02:00:48;14.80;99.90
34147;DHT22;20423;49.448;9.056;2023-07-20T02:03:13;14.70;99.90
34147;DHT22;20423;49.448;9.056;2023-07-20T02:05:39;14.60;99.90
34147;DHT22;20423;49.448;9.056;2023-07-20T02:08:05;14.60;99.90
34147;DHT22;20423;49.448;9.056;2023-07-20T02:10:30;14.50;99.90
34147;DHT22;20423;49.448;9.056;2023-07-20T02:12:56;14.40;99.90
34147;DHT22;20423;49.448;9.056;2023-07-20T02:18:10;14.20;99.90
34147;DHT22;20423;49.448;9.056;2023-07-20T02:20:36;14.10;99.90
34147;DHT22;20423;49.448;9.056;2023-07-20T02:23:01;14.00;99.90
34147;DHT22;20423;49.448;9.056;2023-07-20T02:25:27;14.00;99.90
34147;DHT22;20423;49.448;9.056;2023-07-20T02:27:52;14.00;99.90
34147;DHT22;20423;49.448;9.056;2023-07-20T02:30:18;13.90;99.90
34147;DHT22;20423;49.448;9.056;2023-07-20T02:32:44;13.90;99.90
34147;DHT22;20423;49.448;9.056;2023-07-20T02:35:11;13.80;99.90
34147;DHT22;20423;49.448;9.056;2023-07-20T02:37:36;13.70;99.90
34147;DHT22;20423;49.448;9.056;2023-07-20T02:40:02;13.60;99.90
34147;DHT22;20423;49.448;9.056;2023-07-20T02:42:29;13.60;99.90
34147;DHT22;20423;49.448;9.056;2023-07-20T02:44:55;13.50;99.90
34147;DHT22;20423;49.448;9.056;2023-07-20T02:47:20;13.40;99.90
34147;DHT22;20423;49.448;9.056;2023-07-20T02:49:46;13.40;99.90
34147;DHT22;20423;49.448;9.056;2023-07-20T02:52:12;13.50;99.90
34147;DHT22;20423;49.448;9.056;2023-07-20T02:54:38;13.60;99.90
34147;DHT22;20423;49.448;9.056;2023-07-20T02:57:04;13.70;99.90
34147;DHT22;20423;49.448;9.056;2023-07-20T02:59:29;13.70;99.90
34147;DHT22;20423;49.448;9.056;2023-07-20T03:01:55;13.70;99.90
34147;DHT22;20423;49.448;9.056;2023-07-20T03:04:21;13.60;99.90
34147;DHT22;20423;49.448;9.056;2023-07-20T03:06:47;13.60;99.90
34147;DHT22;20423;49.448;9.056;2023-07-20T03:09:12;13.50;99.90
34147;DHT22;20423;49.448;9.056;2023-07-20T03:11:38;13.40;99.90
34147;DHT22;20423;49.448;9.056;2023-07-20T03:14:04;13.30;99.90
34147;DHT22;20423;49.448;9.056;2023-07-20T03:16:29;13.30;99.90
34147;DHT22;20423;49.448;9.056;2023-07-20T03:19:15;13.20;99.90
34147;DHT22;20423;49.448;9.056;2023-07-20T03:21:41;13.20;99.90
34147;DHT22;20423;49.448;9.056;2023-07-20T03:24:07;13.20;99.90
34147;DHT22;20423;49.448;9.056;2023-07-20T03:26:46;13.20;99.90
34147;DHT22;20423;49.448;9.056;2023-07-20T03:29:11;13.20;99.90
34147;DHT22;20423;49.448;9.056;2023-07-20T03:31:37;13.20;99.90
34147;DHT22;20423;49.448;9.056;2023-07-20T03:34:03;13.20;99.90
34147;DHT22;20423;49.448;9.056;2023-07-20T03:36:30;13.10;99.90
34147;DHT22;20423;49.448;9.056;2023-07-20T03:38:56;13.10;99.90
34147;DHT22;20423;49.448;9.056;2023-07-20T03:41:22;13.00;99.90
34147;DHT22;20423;49.448;9.056;2023-07-20T03:43:48;12.90;99.90
34147;DHT22;20423;49.448;9.056;2023-07-20T03:46:14;12.90;99.90
34147;DHT22;20423;49.448;9.056;2023-07-20T03:48:39;12.80;99.90
34147;DHT22;20423;49.448;9.056;2023-07-20T03:51:05;12.80;99.90
34147;DHT22;20423;49.448;9.056;2023-07-20T03:53:31;12.70;99.90
34147;DHT22;20423;49.448;9.056;2023-07-20T03:55:57;12.60;99.90
34147;DHT22;20423;49.448;9.056;2023-07-20T03:58:22;12.40;99.90
34147;DHT22;20423;49.448;9.056;2023-07-20T04:00:49;12.40;99.90
34147;DHT22;20423;49.448;9.056;2023-07-20T04:03:18;12.40;99.90
34147;DHT22;20423;49.448;9.056;2023-07-20T04:05:44;12.40;99.90
34147;DHT22;20423;49.448;9.056;2023-07-20T04:08:10;12.30;99.90
34147;DHT22;20423;49.448;9.056;2023-07-20T04:10:39;12.30;99.90
34147;DHT22;20423;49.448;9.056;2023-07-20T04:13:04;12.30;99.90
34147;DHT22;20423;49.448;9.056;2023-07-20T04:15:30;12.30;99.90
34147;DHT22;20423;49.448;9.056;2023-07-20T04:17:56;12.20;99.90
34147;DHT22;20423;49.448;9.056;2023-07-20T04:20:25;12.20;99.90
34147;DHT22;20423;49.448;9.056;2023-07-20T04:22:50;12.30;99.90
34147;DHT22;20423;49.448;9.056;2023-07-20T04:25:19;12.30;99.90
34147;DHT22;20423;49.448;9.056;2023-07-20T04:27:45;12.40;99.90
34147;DHT22;20423;49.448;9.056;2023-07-20T04:30:11;12.40;99.90
34147;DHT22;20423;49.448;9.056;2023-07-20T04:32:38;12.40;99.90
34147;DHT22;20423;49.448;9.056;2023-07-20T04:35:07;12.40;99.90
34147;DHT22;20423;49.448;9.056;2023-07-20T04:37:35;12.40;99.90
34147;DHT22;20423;49.448;9.056;2023-07-20T04:40:02;12.50;99.90
34147;DHT22;20423;49.448;9.056;2023-07-20T04:42:29;12.60;99.90
34147;DHT22;20423;49.448;9.056;2023-07-20T04:44:54;12.70;99.90
34147;DHT22;20423;49.448;9.056;2023-07-20T04:47:20;12.70;99.90
34147;DHT22;20423;49.448;9.056;2023-07-20T04:49:47;12.80;99.90
34147;DHT22;20423;49.448;9.056;2023-07-20T04:52:13;12.90;99.90
34147;DHT22;20423;49.448;9.056;2023-07-20T04:54:39;13.10;99.90
34147;DHT22;20423;49.448;9.056;2023-07-20T04:57:11;13.30;99.90
34147;DHT22;20423;49.448;9.056;2023-07-20T04:59:38;13.40;99.90
34147;DHT22;20423;49.448;9.056;2023-07-20T05:02:03;13.60;99.90
34147;DHT22;20423;49.448;9.056;2023-07-20T05:04:41;13.70;99.90
34147;DHT22;20423;49.448;9.056;2023-07-20T05:07:07;13.90;99.90
34147;DHT22;20423;49.448;9.056;2023-07-20T05:09:33;14.00;99.90
34147;DHT22;20423;49.448;9.056;2023-07-20T05:11:59;14.10;99.90
34147;DHT22;20423;49.448;9.056;2023-07-20T05:14:25;14.30;99.90
34147;DHT22;20423;49.448;9.056;2023-07-20T05:16:51;14.40;99.90
34147;DHT22;20423;49.448;9.056;2023-07-20T05:19:17;14.50;99.90
34147;DHT22;20423;49.448;9.056;2023-07-20T05:21:43;14.60;99.90
34147;DHT22;20423;49.448;9.056;2023-07-20T05:24:09;14.70;99.90
34147;DHT22;20423;49.448;9.056;2023-07-20T05:26:34;14.70;99.90
34147;DHT22;20423;49.448;9.056;2023-07-20T05:29:00;14.80;99.90
34147;DHT22;20423;49.448;9.056;2023-07-20T05:31:25;14.90;99.90
34147;DHT22;20423;49.448;9.056;2023-07-20T05:33:51;15.00;99.90
34147;DHT22;20423;49.448;9.056;2023-07-20T05:36:17;15.10;99.90
34147;DHT22;20423;49.448;9.056;2023-07-20T05:38:42;15.20;99.90
34147;DHT22;20423;49.448;9.056;2023-07-20T05:41:08;15.30;99.90
34147;DHT22;20423;49.448;9.056;2023-07-20T05:43:35;15.30;99.90
34147;DHT22;20423;49.448;9.056;2023-07-20T05:46:01;15.40;99.90
34147;DHT22;20423;49.448;9.056;2023-07-20T05:48:26;15.50;99.90
34147;DHT22;20423;49.448;9.056;2023-07-20T05:50:52;15.50;99.90
34147;DHT22;20423;49.448;9.056;2023-07-20T05:53:18;15.50;99.90
34147;DHT22;20423;49.448;9.056;2023-07-20T05:55:58;15.60;99.90
34147;DHT22;20423;49.448;9.056;2023-07-20T05:58:24;15.80;99.90
34147;DHT22;20423;49.448;9.056;2023-07-20T06:01:03;15.90;99.90
34147;DHT22;20423;49.448;9.056;2023-07-20T06:03:31;15.90;99.90
34147;DHT22;20423;49.448;9.056;2023-07-20T06:06:02;15.80;99.90
34147;DHT22;20423;49.448;9.056;2023-07-20T06:08:29;15.80;99.90
34147;DHT22;20423;49.448;9.056;2023-07-20T06:10:55;15.80;99.90
34147;DHT22;20423;49.448;9.056;2023-07-20T06:13:21;15.80;99.90
34147;DHT22;20423;49.448;9.056;2023-07-20T06:15:47;15.90;99.90
34147;DHT22;20423;49.448;9.056;2023-07-20T06:18:13;16.00;99.90
34147;DHT22;20423;49.448;9.056;2023-07-20T06:20:38;16.10;99.90
34147;DHT22;20423;49.448;9.056;2023-07-20T06:23:04;16.00;99.90
34147;DHT22;20423;49.448;9.056;2023-07-20T06:25:30;16.10;99.90
34147;DHT22;20423;49.448;9.056;2023-07-20T06:27:55;16.10;99.90
34147;DHT22;20423;49.448;9.056;2023-07-20T06:30:21;16.20;99.90
34147;DHT22;20423;49.448;9.056;2023-07-20T06:32:48;16.30;99.90
34147;DHT22;20423;49.448;9.056;2023-07-20T06:35:14;16.40;99.90
34147;DHT22;20423;49.448;9.056;2023-07-20T06:37:40;16.40;99.90
34147;DHT22;20423;49.448;9.056;2023-07-20T06:40:06;16.40;99.90
34147;DHT22;20423;49.448;9.056;2023-07-20T06:42:34;16.50;99.90
34147;DHT22;20423;49.448;9.056;2023-07-20T06:45:00;16.50;99.90
34147;DHT22;20423;49.448;9.056;2023-07-20T06:47:25;16.60;99.90
34147;DHT22;20423;49.448;9.056;2023-07-20T06:49:52;16.70;99.90
34147;DHT22;20423;49.448;9.056;2023-07-20T06:52:18;16.80;99.90
34147;DHT22;20423;49.448;9.056;2023-07-20T06:54:43;16.90;99.90
34147;DHT22;20423;49.448;9.056;2023-07-20T06:57:10;16.90;99.90
34147;DHT22;20423;49.448;9.056;2023-07-20T06:59:35;17.00;99.90
34147;DHT22;20423;49.448;9.056;2023-07-20T07:02:01;17.10;99.90
34147;DHT22;20423;49.448;9.056;2023-07-20T07:04:26;17.20;99.90
34147;DHT22;20423;49.448;9.056;2023-07-20T07:06:53;17.30;99.90
34147;DHT22;20423;49.448;9.056;2023-07-20T07:09:18;17.30;99.90
34147;DHT22;20423;49.448;9.056;2023-07-20T07:11:44;17.40;99.90
34147;DHT22;20423;49.448;9.056;2023-07-20T07:14:10;17.30;99.90
34147;DHT22;20423;49.448;9.056;2023-07-20T07:16:35;17.30;99.90
34147;DHT22;20423;49.448;9.056;2023-07-20T07:19:01;17.30;99.90
34147;DHT22;20423;49.448;9.056;2023-07-20T07:21:26;17.40;99.90
34147;DHT22;20423;49.448;9.056;2023-07-20T07:23:52;17.40;99.90
34147;DHT22;20423;49.448;9.056;2023-07-20T07:26:19;17.70;99.90
34147;DHT22;20423;49.448;9.056;2023-07-20T07:28:45;18.10;99.90
34147;DHT22;20423;49.448;9.056;2023-07-20T07:31:11;18.30;99.90
34147;DHT22;20423;49.448;9.056;2023-07-20T07:33:37;18.40;99.90
34147;DHT22;20423;49.448;9.056;2023-07-20T07:36:03;18.40;99.90
34147;DHT22;20423;49.448;9.056;2023-07-20T07:38:29;18.40;99.90
34147;DHT22;20423;49.448;9.056;2023-07-20T07:40:54;18.70;99.90
34147;DHT22;20423;49.448;9.056;2023-07-20T07:43:20;19.00;99.90
34147;DHT22;20423;49.448;9.056;2023-07-20T07:45:45;19.30;99.90
34147;DHT22;20423;49.448;9.056;2023-07-20T07:48:11;19.50;99.90
34147;DHT22;20423;49.448;9.056;2023-07-20T07:50:38;19.50;99.90
34147;DHT22;20423;49.448;9.056;2023-07-20T07:53:03;19.80;99.90
34147;DHT22;20423;49.448;9.056;2023-07-20T07:55:29;19.90;99.90
34147;DHT22;20423;49.448;9.056;2023-07-20T07:57:55;20.00;99.90
34147;DHT22;20423;49.448;9.056;2023-07-20T08:00:21;20.90;99.90
34147;DHT22;20423;49.448;9.056;2023-07-20T08:02:46;21.80;99.90
34147;DHT22;20423;49.448;9.056;2023-07-20T08:05:13;22.20;99.90
34147;DHT22;20423;49.448;9.056;2023-07-20T08:07:39;20.90;99.90
34147;DHT22;20423;49.448;9.056;2023-07-20T08:10:05;20.10;99.90
34147;DHT22;20423;49.448;9.056;2023-07-20T08:12:31;19.50;99.90
34147;DHT22;20423;49.448;9.056;2023-07-20T08:14:57;19.20;99.90
34147;DHT22;20423;49.448;9.056;2023-07-20T08:17:22;19.10;99.90
34147;DHT22;20423;49.448;9.056;2023-07-20T08:19:48;19.40;99.90
34147;DHT22;20423;49.448;9.056;2023-07-20T08:22:20;21.00;99.90
34147;DHT22;20423;49.448;9.056;2023-07-20T08:24:45;22.50;99.90
34147;DHT22;20423;49.448;9.056;2023-07-20T08:27:11;23.30;99.90
34147;DHT22;20423;49.448;9.056;2023-07-20T08:29:37;23.90;99.90
34147;DHT22;20423;49.448;9.056;2023-07-20T08:35:00;23.70;99.90
34147;DHT22;20423;49.448;9.056;2023-07-20T08:37:26;23.70;99.90
34147;DHT22;20423;49.448;9.056;2023-07-20T08:39:52;24.00;99.90
34147;DHT22;20423;49.448;9.056;2023-07-20T08:42:17;23.60;99.90
34147;DHT22;20423;49.448;9.056;2023-07-20T08:44:58;24.30;98.80
34147;DHT22;20423;49.448;9.056;2023-07-20T08:47:25;25.20;97.20
34147;DHT22;20423;49.448;9.056;2023-07-20T08:49:51;25.10;96.10
34147;DHT22;20423;49.448;9.056;2023-07-20T08:52:17;25.00;96.90
34147;DHT22;20423;49.448;9.056;2023-07-20T08:54:43;25.80;94.20
34147;DHT22;20423;49.448;9.056;2023-07-20T08:57:08;25.70;93.80
34147;DHT22;20423;49.448;9.056;2023-07-20T08:59:37;24.20;94.00
34147;DHT22;20423;49.448;9.056;2023-07-20T09:02:04;23.50;95.80
34147;DHT22;20423;49.448;9.056;2023-07-20T09:04:30;24.60;95.40
34147;DHT22;20423;49.448;9.056;2023-07-20T09:06:56;25.00;93.70
34147;DHT22;20423;49.448;9.056;2023-07-20T09:09:28;24.80;94.40
34147;DHT22;20423;49.448;9.056;2023-07-20T09:11:54;25.80;92.60
34147;DHT22;20423;49.448;9.056;2023-07-20T09:14:19;26.10;91.00
34147;DHT22;20423;49.448;9.056;2023-07-20T09:16:49;25.70;91.20
34147;DHT22;20423;49.448;9.056;2023-07-20T09:19:15;24.20;91.70
34147;DHT22;20423;49.448;9.056;2023-07-20T09:21:43;23.80;92.70
34147;DHT22;20423;49.448;9.056;2023-07-20T09:24:09;24.60;92.70
34147;DHT22;20423;49.448;9.056;2023-07-20T09:26:39;24.90;90.70
34147;DHT22;20423;49.448;9.056;2023-07-20T09:29:06;24.30;90.80
34147;DHT22;20423;49.448;9.056;2023-07-20T09:31:32;23.60;92.80
34147;DHT22;20423;49.448;9.056;2023-07-20T09:33:58;24.30;92.70
34147;DHT22;20423;49.448;9.056;2023-07-20T09:36:24;23.90;92.90
34147;DHT22;20423;49.448;9.056;2023-07-20T09:38:51;23.80;94.10
34147;DHT22;20423;49.448;9.056;2023-07-20T09:41:17;23.80;93.80
34147;DHT22;20423;49.448;9.056;2023-07-20T09:43:43;24.30;93.70
34147;DHT22;20423;49.448;9.056;2023-07-20T09:46:16;24.80;92.70
34147;DHT22;20423;49.448;9.056;2023-07-20T09:48:51;25.00;92.10
34147;DHT22;20423;49.448;9.056;2023-07-20T09:51:17;25.50;92.10
34147;DHT22;20423;49.448;9.056;2023-07-20T09:53:43;26.30;92.00
34147;DHT22;20423;49.448;9.056;2023-07-20T09:56:09;26.10;91.40
34147;DHT22;20423;49.448;9.056;2023-07-20T09:58:36;25.80;91.80
34147;DHT22;20423;49.448;9.056;2023-07-20T10:01:02;25.90;92.10
34147;DHT22;20423;49.448;9.056;2023-07-20T10:03:30;25.60;91.00
34147;DHT22;20423;49.448;9.056;2023-07-20T10:06:02;26.00;91.30
34147;DHT22;20423;49.448;9.056;2023-07-20T10:08:30;26.00;90.80
34147;DHT22;20423;49.448;9.056;2023-07-20T10:10:58;26.10;91.30
34147;DHT22;20423;49.448;9.056;2023-07-20T10:13:27;25.50;90.50
34147;DHT22;20423;49.448;9.056;2023-07-20T10:21:24;24.10;92.10
34147;DHT22;20423;49.448;9.056;2023-07-20T10:23:49;23.80;92.80
34147;DHT22;20423;49.448;9.056;2023-07-20T10:26:15;23.00;93.90
34147;DHT22;20423;49.448;9.056;2023-07-20T10:28:41;22.50;94.70
34147;DHT22;20423;49.448;9.056;2023-07-20T10:31:07;22.60;94.70
34147;DHT22;20423;49.448;9.056;2023-07-20T10:33:33;23.00;94.60
34147;DHT22;20423;49.448;9.056;2023-07-20T10:36:02;23.30;94.30
34147;DHT22;20423;49.448;9.056;2023-07-20T10:41:34;23.90;92.30
34147;DHT22;20423;49.448;9.056;2023-07-20T10:44:00;23.70;92.70
34147;DHT22;20423;49.448;9.056;2023-07-20T10:49:04;23.30;93.90
34147;DHT22;20423;49.448;9.056;2023-07-20T10:51:31;23.60;93.60
34147;DHT22;20423;49.448;9.056;2023-07-20T10:54:07;24.00;92.90
34147;DHT22;20423;49.448;9.056;2023-07-20T10:56:32;24.60;92.70
34147;DHT22;20423;49.448;9.056;2023-07-20T10:58:58;24.70;92.30
34147;DHT22;20423;49.448;9.056;2023-07-20T11:01:27;24.40;92.10
34147;DHT22;20423;49.448;9.056;2023-07-20T11:03:56;24.10;91.90
34147;DHT22;20423;49.448;9.056;2023-07-20T11:09:04;23.90;92.30
34147;DHT22;20423;49.448;9.056;2023-07-20T11:11:30;24.10;91.80
34147;DHT22;20423;49.448;9.056;2023-07-20T11:14:00;24.10;90.50
34147;DHT22;20423;49.448;9.056;2023-07-20T11:19:25;24.50;90.30
34147;DHT22;20423;49.448;9.056;2023-07-20T11:21:52;24.90;89.20
34147;DHT22;20423;49.448;9.056;2023-07-20T11:24:18;25.10;88.80
34147;DHT22;20423;49.448;9.056;2023-07-20T11:26:44;25.40;90.20
34147;DHT22;20423;49.448;9.056;2023-07-20T11:29:10;25.60;87.20
34147;DHT22;20423;49.448;9.056;2023-07-20T11:31:36;24.60;88.20
34147;DHT22;20423;49.448;9.056;2023-07-20T11:34:02;24.50;89.80
34147;DHT22;20423;49.448;9.056;2023-07-20T11:36:27;24.70;88.10
34147;DHT22;20423;49.448;9.056;2023-07-20T11:38:53;24.90;89.00
34147;DHT22;20423;49.448;9.056;2023-07-20T11:41:19;25.10;90.20
34147;DHT22;20423;49.448;9.056;2023-07-20T11:43:45;25.30;89.90
34147;DHT22;20423;49.448;9.056;2023-07-20T11:46:11;25.30;88.00
34147;DHT22;20423;49.448;9.056;2023-07-20T11:48:36;25.10;85.50
34147;DHT22;20423;49.448;9.056;2023-07-20T11:51:02;25.10;85.90
34147;DHT22;20423;49.448;9.056;2023-07-20T11:53:27;25.10;82.80
34147;DHT22;20423;49.448;9.056;2023-07-20T11:55:54;25.30;82.50
34147;DHT22;20423;49.448;9.056;2023-07-20T11:58:20;25.40;82.80
34147;DHT22;20423;49.448;9.056;2023-07-20T12:00:47;25.20;81.60
34147;DHT22;20423;49.448;9.056;2023-07-20T12:03:12;25.10;80.80
34147;DHT22;20423;49.448;9.056;2023-07-20T12:05:47;25.70;80.60
34147;DHT22;20423;49.448;9.056;2023-07-20T12:08:15;25.80;81.90
34147;DHT22;20423;49.448;9.056;2023-07-20T12:10:40;26.30;81.20
34147;DHT22;20423;49.448;9.056;2023-07-20T12:13:09;26.30;82.00
34147;DHT22;20423;49.448;9.056;2023-07-20T12:15:35;26.10;82.80
34147;DHT22;20423;49.448;9.056;2023-07-20T12:18:02;26.20;80.50
34147;DHT22;20423;49.448;9.056;2023-07-20T12:23:02;25.50;79.10
34147;DHT22;20423;49.448;9.056;2023-07-20T12:28:04;24.00;81.20
34147;DHT22;20423;49.448;9.056;2023-07-20T12:30:29;24.10;80.60
34147;DHT22;20423;49.448;9.056;2023-07-20T12:32:55;24.30;80.40
34147;DHT22;20423;49.448;9.056;2023-07-20T12:35:20;24.50;78.70
34147;DHT22;20423;49.448;9.056;2023-07-20T12:37:46;24.40;79.20
34147;DHT22;20423;49.448;9.056;2023-07-20T12:40:14;24.00;80.20
34147;DHT22;20423;49.448;9.056;2023-07-20T12:42:40;23.70;82.00
34147;DHT22;20423;49.448;9.056;2023-07-20T12:45:05;23.60;82.30
34147;DHT22;20423;49.448;9.056;2023-07-20T12:47:32;23.50;83.60
34147;DHT22;20423;49.448;9.056;2023-07-20T12:49:58;23.80;82.70
34147;DHT22;20423;49.448;9.056;2023-07-20T12:52:30;24.10;83.70
34147;DHT22;20423;49.448;9.056;2023-07-20T12:54:55;24.40;81.70
34147;DHT22;20423;49.448;9.056;2023-07-20T12:57:21;24.50;82.20
34147;DHT22;20423;49.448;9.056;2023-07-20T12:59:46;24.30;79.60
34147;DHT22;20423;49.448;9.056;2023-07-20T13:02:12;24.30;77.80
34147;DHT22;20423;49.448;9.056;2023-07-20T13:04:38;24.30;80.00
34147;DHT22;20423;49.448;9.056;2023-07-20T13:07:03;24.20;80.50
34147;DHT22;20423;49.448;9.056;2023-07-20T13:09:29;23.90;82.00
34147;DHT22;20423;49.448;9.056;2023-07-20T13:11:54;23.80;83.50
34147;DHT22;20423;49.448;9.056;2023-07-20T13:14:22;23.80;83.20
34147;DHT22;20423;49.448;9.056;2023-07-20T13:16:48;23.80;83.00
34147;DHT22;20423;49.448;9.056;2023-07-20T13:19:13;23.70;84.30
34147;DHT22;20423;49.448;9.056;2023-07-20T13:21:39;23.80;82.90
34147;DHT22;20423;49.448;9.056;2023-07-20T13:24:05;23.90;84.30
34147;DHT22;20423;49.448;9.056;2023-07-20T13:26:30;24.20;82.80
34147;DHT22;20423;49.448;9.056;2023-07-20T13:28:56;24.30;83.30
34147;DHT22;20423;49.448;9.056;2023-07-20T13:31:22;24.50;81.90
34147;DHT22;20423;49.448;9.056;2023-07-20T13:33:48;24.40;80.80
34147;DHT22;20423;49.448;9.056;2023-07-20T13:36:13;24.30;82.70
34147;DHT22;20423;49.448;9.056;2023-07-20T13:38:39;24.10;82.00
34147;DHT22;20423;49.448;9.056;2023-07-20T13:41:05;24.40;82.00
34147;DHT22;20423;49.448;9.056;2023-07-20T13:43:30;24.80;80.00
34147;DHT22;20423;49.448;9.056;2023-07-20T13:45:56;24.90;80.50
34147;DHT22;20423;49.448;9.056;2023-07-20T13:48:22;24.80;81.20
34147;DHT22;20423;49.448;9.056;2023-07-20T13:50:48;24.40;82.00
34147;DHT22;20423;49.448;9.056;2023-07-20T13:53:14;24.80;81.30
34147;DHT22;20423;49.448;9.056;2023-07-20T13:55:41;25.60;78.60
34147;DHT22;20423;49.448;9.056;2023-07-20T13:58:19;26.00;77.30
34147;DHT22;20423;49.448;9.056;2023-07-20T14:00:45;26.20;76.70
34147;DHT22;20423;49.448;9.056;2023-07-20T14:03:11;26.70;77.00
34147;DHT22;20423;49.448;9.056;2023-07-20T14:05:36;26.60;76.90
34147;DHT22;20423;49.448;9.056;2023-07-20T14:08:02;26.40;77.40
34147;DHT22;20423;49.448;9.056;2023-07-20T14:10:27;26.80;77.00
34147;DHT22;20423;49.448;9.056;2023-07-20T14:12:53;27.30;77.70
34147;DHT22;20423;49.448;9.056;2023-07-20T14:15:18;28.10;74.70
34147;DHT22;20423;49.448;9.056;2023-07-20T14:17:45;28.30;73.70
34147;DHT22;20423;49.448;9.056;2023-07-20T14:20:11;26.90;74.60
34147;DHT22;20423;49.448;9.056;2023-07-20T14:22:36;26.10;77.60
34147;DHT22;20423;49.448;9.056;2023-07-20T14:25:14;25.60;76.90
34147;DHT22;20423;49.448;9.056;2023-07-20T14:27:40;25.30;78.00
34147;DHT22;20423;49.448;9.056;2023-07-20T14:30:06;24.80;77.30
34147;DHT22;20423;49.448;9.056;2023-07-20T14:32:32;24.50;78.80
34147;DHT22;20423;49.448;9.056;2023-07-20T14:34:59;24.70;80.20
34147;DHT22;20423;49.448;9.056;2023-07-20T14:37:24;24.70;79.10
34147;DHT22;20423;49.448;9.056;2023-07-20T14:39:50;24.80;79.50
34147;DHT22;20423;49.448;9.056;2023-07-20T14:42:15;25.20;79.50
34147;DHT22;20423;49.448;9.056;2023-07-20T14:44:41;25.40;77.00
34147;DHT22;20423;49.448;9.056;2023-07-20T14:47:07;25.10;77.10
34147;DHT22;20423;49.448;9.056;2023-07-20T14:49:33;24.70;79.00
34147;DHT22;20423;49.448;9.056;2023-07-20T14:51:59;24.30;79.40
34147;DHT22;20423;49.448;9.056;2023-07-20T14:54:24;24.60;78.50
34147;DHT22;20423;49.448;9.056;2023-07-20T14:56:51;25.20;80.00
34147;DHT22;20423;49.448;9.056;2023-07-20T14:59:18;25.80;78.60
34147;DHT22;20423;49.448;9.056;2023-07-20T15:01:44;25.90;76.50
34147;DHT22;20423;49.448;9.056;2023-07-20T15:04:13;25.70;78.20
34147;DHT22;20423;49.448;9.056;2023-07-20T15:06:38;25.10;78.50
34147;DHT22;20423;49.448;9.056;2023-07-20T15:09:04;24.40;79.10
34147;DHT22;20423;49.448;9.056;2023-07-20T15:11:29;24.00;79.80
34147;DHT22;20423;49.448;9.056;2023-07-20T15:13:55;24.30;81.90
34147;DHT22;20423;49.448;9.056;2023-07-20T15:16:23;25.50;78.60
34147;DHT22;20423;49.448;9.056;2023-07-20T15:18:48;26.60;76.20
34147;DHT22;20423;49.448;9.056;2023-07-20T15:21:14;27.40;75.70
34147;DHT22;20423;49.448;9.056;2023-07-20T15:23:40;27.20;73.90
34147;DHT22;20423;49.448;9.056;2023-07-20T15:26:06;27.30;74.10
34147;DHT22;20423;49.448;9.056;2023-07-20T15:28:31;26.70;73.80
34147;DHT22;20423;49.448;9.056;2023-07-20T15:31:00;25.80;75.50
34147;DHT22;20423;49.448;9.056;2023-07-20T15:33:26;25.20;76.80
34147;DHT22;20423;49.448;9.056;2023-07-20T15:38:56;24.20;80.30
34147;DHT22;20423;49.448;9.056;2023-07-20T15:41:21;24.10;80.20
34147;DHT22;20423;49.448;9.056;2023-07-20T15:43:47;24.40;79.50
34147;DHT22;20423;49.448;9.056;2023-07-20T15:48:46;24.10;78.50
34147;DHT22;20423;49.448;9.056;2023-07-20T15:51:11;24.00;79.00
34147;DHT22;20423;49.448;9.056;2023-07-20T15:53:37;23.90;78.50
34147;DHT22;20423;49.448;9.056;2023-07-20T15:56:03;23.90;79.00
34147;DHT22;20423;49.448;9.056;2023-07-20T15:58:29;23.80;78.80
34147;DHT22;20423;49.448;9.056;2023-07-20T16:00:55;23.70;81.10
34147;DHT22;20423;49.448;9.056;2023-07-20T16:03:21;23.70;80.50
34147;DHT22;20423;49.448;9.056;2023-07-20T16:05:47;23.80;82.00
34147;DHT22;20423;49.448;9.056;2023-07-20T16:08:13;24.40;78.20
34147;DHT22;20423;49.448;9.056;2023-07-20T16:10:38;24.60;77.80
34147;DHT22;20423;49.448;9.056;2023-07-20T16:13:04;24.50;79.50
34147;DHT22;20423;49.448;9.056;2023-07-20T16:15:29;25.00;79.70